Time,TemperatureF,DewpointF,PressureIn,WindDirection,WindDirectionDegrees,WindSpeedMPH,WindSpeedGustMPH,Humidity,HourlyPrecipIn,Conditions,Clouds,dailyrainin,SoftwareType,DateUTC
2013-02-22 00:00:00,34.5,28.1,29.77,SW,226,0.0,0.0,77,0.00,,---,0.00,VWS V14.01,2013-02-22 07:00:00,
2013-02-22 00:05:00,34.9,28.7,29.77,South,186,0.0,0.0,78,0.00,,---,0.00,VWS V14.01,2013-02-22 07:05:00,
2013-02-22 00:10:00,34.9,28.7,29.80,SSW,213,0.0,0.0,78,0.00,,---,0.00,VWS V14.01,2013-02-22 07:10:00,
2013-02-22 00:15:00,35.1,28.9,29.80,SW,214,0.0,0.0,78,0.00,,---,0.00,VWS V14.01,2013-02-22 07:15:00,
2013-02-22 00:20:00,35.1,28.9,29.80,SW,214,0.0,0.0,78,0.00,,---,0.00,VWS V14.01,2013-02-22 07:20:00,
2013-02-22 00:25:00,35.1,28.9,29.80,SW,214,0.0,0.0,78,0.00,,---,0.00,VWS V14.01,2013-02-22 07:25:00,
2013-02-22 00:30:00,35.1,28.6,29.80,NW,306,0.0,0.0,77,0.00,,---,0.00,VWS V14.01,2013-02-22 07:30:00,
2013-02-22 00:35:00,35.1,28.6,29.80,NW,304,0.0,0.0,77,0.00,,---,0.00,VWS V14.01,2013-02-22 07:35:00,
2013-02-22 00:40:00,34.9,28.4,29.80,NW,304,0.0,0.0,77,0.00,,---,0.00,VWS V14.01,2013-02-22 07:40:00,
2013-02-22 00:45:00,34.9,28.4,29.80,NW,304,0.0,0.0,77,0.00,,---,0.00,VWS V14.01,2013-02-22 07:45:00,
2013-02-22 00:50:00,34.3,27.6,29.80,NW,305,0.0,0.0,76,0.00,,---,0.00,VWS V14.01,2013-02-22 07:50:00,
2013-02-22 00:55:00,34.3,27.6,29.80,NW,304,0.0,0.0,76,0.00,,---,0.00,VWS V14.01,2013-02-22 07:55:00,
2013-02-22 01:00:00,34.2,27.4,29.80,NW,305,0.0,0.0,76,0.00,,---,0.00,VWS V14.01,2013-02-22 08:00:00,
2013-02-22 01:05:00,34.2,27.4,29.80,NW,305,0.0,0.0,76,0.00,,---,0.00,VWS V14.01,2013-02-22 08:05:00,
2013-02-22 01:10:00,34.2,27.4,29.80,NW,305,0.0,0.0,76,0.00,,---,0.00,VWS V14.01,2013-02-22 08:10:00,
2013-02-22 01:15:00,34.2,27.4,29.80,NW,304,0.0,0.0,76,0.00,,---,0.00,VWS V14.01,2013-02-22 08:15:00,
2013-02-22 01:20:00,34.3,27.6,29.80,NW,305,0.0,0.0,76,0.00,,---,0.00,VWS V14.01,2013-02-22 08:20:00,
2013-02-22 01:25:00,34.3,27.6,29.80,NW,304,0.0,0.0,76,0.00,,---,0.00,VWS V14.01,2013-02-22 08:25:00,
2013-02-22 01:30:00,34.5,27.8,29.80,NW,305,0.0,0.0,76,0.00,,---,0.00,VWS V14.01,2013-02-22 08:30:00,
2013-02-22 01:35:00,34.5,27.8,29.80,NW,305,0.0,0.0,76,0.00,,---,0.00,VWS V14.01,2013-02-22 08:35:00,
2013-02-22 01:40:00,34.5,27.8,29.80,NW,304,0.0,0.0,76,0.00,,---,0.00,VWS V14.01,2013-02-22 08:40:00,
2013-02-22 01:45:00,34.5,27.8,29.80,NW,304,0.0,0.0,76,0.00,,---,0.00,VWS V14.01,2013-02-22 08:45:00,
2013-02-22 01:51:00,34.3,27.6,29.80,NW,304,0.0,0.0,76,0.00,,---,0.00,VWS V14.01,2013-02-22 08:51:00,
2013-02-22 01:56:00,34.2,27.4,29.80,NW,304,0.0,0.0,76,0.00,,---,0.00,VWS V14.01,2013-02-22 08:56:00,
2013-02-22 02:01:00,33.8,26.7,29.80,NW,305,0.0,0.0,75,0.00,,---,0.00,VWS V14.01,2013-02-22 09:01:00,
2013-02-22 02:06:00,33.6,26.9,29.80,NW,304,0.0,0.0,76,0.00,,---,0.00,VWS V14.01,2013-02-22 09:06:00,
2013-02-22 02:11:00,33.6,26.9,29.80,NW,304,0.0,0.0,76,0.00,,---,0.00,VWS V14.01,2013-02-22 09:11:00,
2013-02-22 02:16:00,33.6,26.9,29.80,NW,305,0.0,0.0,76,0.00,,---,0.00,VWS V14.01,2013-02-22 09:16:00,
2013-02-22 02:21:00,33.3,26.5,29.80,NW,304,0.0,0.0,76,0.00,,---,0.00,VWS V14.01,2013-02-22 09:21:00,
2013-02-22 02:26:00,33.1,26.4,29.80,NW,304,0.0,0.0,76,0.00,,---,0.00,VWS V14.01,2013-02-22 09:26:00,
2013-02-22 02:31:00,33.1,26.4,29.80,NW,304,0.0,0.0,76,0.00,,---,0.00,VWS V14.01,2013-02-22 09:31:00,
2013-02-22 02:36:00,33.1,26.4,29.80,NW,304,0.0,0.0,76,0.00,,---,0.00,VWS V14.01,2013-02-22 09:36:00,
2013-02-22 02:41:00,33.1,26.4,29.80,NW,305,0.0,0.0,76,0.00,,---,0.00,VWS V14.01,2013-02-22 09:41:00,
2013-02-22 02:46:00,33.1,26.7,29.80,West,267,3.1,3.1,77,0.00,,---,0.00,VWS V14.01,2013-02-22 09:46:00,
2013-02-22 02:51:00,33.1,26.7,29.80,West,281,3.1,3.1,77,0.00,,---,0.00,VWS V14.01,2013-02-22 09:51:00,
2013-02-22 02:56:00,33.1,26.7,29.80,West,272,0.0,2.7,77,0.00,,---,0.00,VWS V14.01,2013-02-22 09:56:00,
2013-02-22 03:01:00,33.1,26.7,29.80,West,270,4.0,5.4,77,0.00,,---,0.00,VWS V14.01,2013-02-22 10:01:00,
2013-02-22 03:06:00,33.1,26.7,29.80,WNW,284,0.0,0.0,77,0.00,,---,0.00,VWS V14.01,2013-02-22 10:06:00,
2013-02-22 03:11:00,33.1,26.7,29.80,WNW,284,0.0,0.0,77,0.00,,---,0.00,VWS V14.01,2013-02-22 10:11:00,
2013-02-22 03:16:00,33.1,27.0,29.80,WNW,284,0.0,0.0,78,0.00,,---,0.00,VWS V14.01,2013-02-22 10:16:00,
2013-02-22 03:21:00,33.1,27.0,29.80,WNW,299,0.0,0.0,78,0.00,,---,0.00,VWS V14.01,2013-02-22 10:21:00,
2013-02-22 03:26:00,33.1,27.0,29.80,WNW,288,0.0,0.0,78,0.00,,---,0.00,VWS V14.01,2013-02-22 10:26:00,
2013-02-22 03:31:00,33.1,27.0,29.80,WNW,297,0.0,0.0,78,0.00,,---,0.00,VWS V14.01,2013-02-22 10:31:00,
2013-02-22 03:37:00,32.7,26.3,29.80,WNW,296,0.0,0.0,77,0.00,,---,0.00,VWS V14.01,2013-02-22 10:37:00,
2013-02-22 03:42:00,32.5,26.1,29.80,WNW,296,0.0,0.0,77,0.00,,---,0.00,VWS V14.01,2013-02-22 10:42:00,
2013-02-22 03:47:00,32.5,26.1,29.80,WNW,296,0.0,0.0,77,0.00,,---,0.00,VWS V14.01,2013-02-22 10:47:00,
2013-02-22 03:52:00,32.2,25.5,29.80,WNW,296,0.0,0.0,76,0.00,,---,0.00,VWS V14.01,2013-02-22 10:52:00,
2013-02-22 03:57:00,31.8,25.1,29.80,WNW,296,0.0,0.0,76,0.00,,---,0.00,VWS V14.01,2013-02-22 10:57:00,
2013-02-22 04:02:00,31.3,24.3,29.80,WNW,296,0.0,0.0,75,0.00,,---,0.00,VWS V14.01,2013-02-22 11:02:00,
2013-02-22 04:07:00,30.9,23.9,29.80,WNW,296,0.0,0.0,75,0.00,,---,0.00,VWS V14.01,2013-02-22 11:07:00,
2013-02-22 04:12:00,30.7,23.8,29.80,WNW,296,0.0,0.0,75,0.00,,---,0.00,VWS V14.01,2013-02-22 11:12:00,
2013-02-22 04:17:00,30.0,23.1,29.80,WNW,296,0.0,0.0,75,0.00,,---,0.00,VWS V14.01,2013-02-22 11:17:00,
2013-02-22 04:22:00,29.7,22.7,29.80,WNW,296,0.0,0.0,75,0.00,,---,0.00,VWS V14.01,2013-02-22 11:22:00,
2013-02-22 04:27:00,29.5,22.5,29.80,WNW,296,0.0,0.0,75,0.00,,---,0.00,VWS V14.01,2013-02-22 11:27:00,
2013-02-22 04:32:00,29.5,22.5,29.80,WNW,296,0.0,0.0,75,0.00,,---,0.00,VWS V14.01,2013-02-22 11:32:00,
2013-02-22 04:37:00,29.1,21.9,29.80,WNW,296,0.0,0.0,74,0.00,,---,0.00,VWS V14.01,2013-02-22 11:37:00,
2013-02-22 04:42:00,28.8,21.5,29.80,WNW,296,0.0,0.0,74,0.00,,---,0.00,VWS V14.01,2013-02-22 11:42:00,
2013-02-22 04:47:00,28.6,21.4,29.80,WNW,296,0.0,0.0,74,0.00,,---,0.00,VWS V14.01,2013-02-22 11:47:00,
2013-02-22 04:52:00,28.4,21.2,29.80,WNW,296,0.0,0.0,74,0.00,,---,0.00,VWS V14.01,2013-02-22 11:52:00,
2013-02-22 04:57:00,28.2,21.0,29.80,WNW,296,0.0,0.0,74,0.00,,---,0.00,VWS V14.01,2013-02-22 11:57:00,
2013-02-22 05:02:00,28.0,20.8,29.80,WNW,296,0.0,0.0,74,0.00,,---,0.00,VWS V14.01,2013-02-22 12:02:00,
2013-02-22 05:07:00,28.0,21.1,29.80,WNW,296,0.0,0.0,75,0.00,,---,0.00,VWS V14.01,2013-02-22 12:07:00,
2013-02-22 05:12:00,28.0,21.1,29.80,WNW,296,0.0,0.0,75,0.00,,---,0.00,VWS V14.01,2013-02-22 12:12:00,
2013-02-22 05:17:00,27.9,20.7,29.80,WNW,296,0.0,0.0,74,0.00,,---,0.00,VWS V14.01,2013-02-22 12:17:00,
2013-02-22 05:22:00,27.7,20.5,29.80,WNW,296,0.0,0.0,74,0.00,,---,0.00,VWS V14.01,2013-02-22 12:22:00,
2013-02-22 05:27:00,27.5,20.3,29.83,WNW,296,0.0,0.0,74,0.00,,---,0.00,VWS V14.01,2013-02-22 12:27:00,
2013-02-22 05:32:00,27.5,20.3,29.83,WNW,296,0.0,0.0,74,0.00,,---,0.00,VWS V14.01,2013-02-22 12:32:00,
2013-02-22 05:38:00,27.3,20.1,29.83,WNW,296,0.0,0.0,74,0.00,,---,0.00,VWS V14.01,2013-02-22 12:38:00,
2013-02-22 05:43:00,27.3,20.1,29.83,WNW,296,0.0,0.0,74,0.00,,---,0.00,VWS V14.01,2013-02-22 12:43:00,
2013-02-22 05:48:00,27.3,20.1,29.83,WNW,296,0.0,0.0,74,0.00,,---,0.00,VWS V14.01,2013-02-22 12:48:00,
2013-02-22 05:53:00,27.3,20.1,29.83,WNW,296,0.0,0.0,74,0.00,,---,0.00,VWS V14.01,2013-02-22 12:53:00,
2013-02-22 05:58:00,27.0,19.8,29.83,WNW,296,0.0,0.0,74,0.00,,---,0.00,VWS V14.01,2013-02-22 12:58:00,
2013-02-22 06:03:00,26.8,19.3,29.83,WNW,296,0.0,0.0,73,0.00,,---,0.00,VWS V14.01,2013-02-22 13:03:00,
2013-02-22 06:08:00,26.8,19.3,29.83,WNW,296,0.0,0.0,73,0.00,,---,0.00,VWS V14.01,2013-02-22 13:08:00,
2013-02-22 06:13:00,26.8,19.3,29.83,WNW,296,0.0,0.0,73,0.00,,---,0.00,VWS V14.01,2013-02-22 13:13:00,
2013-02-22 06:18:00,26.8,19.3,29.83,WNW,296,0.0,0.0,73,0.00,,---,0.00,VWS V14.01,2013-02-22 13:18:00,
2013-02-22 06:23:00,26.8,19.0,29.83,WNW,296,0.0,0.0,72,0.00,,---,0.00,VWS V14.01,2013-02-22 13:23:00,
2013-02-22 06:28:00,26.6,18.8,29.83,WNW,296,0.0,0.0,72,0.00,,---,0.00,VWS V14.01,2013-02-22 13:28:00,
2013-02-22 06:33:00,26.4,18.3,29.83,WNW,296,0.0,0.0,71,0.00,,---,0.00,VWS V14.01,2013-02-22 13:33:00,
2013-02-22 06:38:00,26.1,17.6,29.83,WNW,296,0.0,0.0,70,0.00,,---,0.00,VWS V14.01,2013-02-22 13:38:00,
2013-02-22 06:43:00,25.9,17.5,29.83,WNW,296,0.0,0.0,70,0.00,,---,0.00,VWS V14.01,2013-02-22 13:43:00,
2013-02-22 06:48:00,25.9,17.5,29.83,WNW,296,0.0,0.0,70,0.00,,---,0.00,VWS V14.01,2013-02-22 13:48:00,
2013-02-22 06:53:00,25.7,17.3,29.83,WNW,296,0.0,0.0,70,0.00,,---,0.00,VWS V14.01,2013-02-22 13:53:00,
2013-02-22 06:58:00,25.5,16.8,29.83,WNW,296,0.0,0.0,69,0.00,,---,0.00,VWS V14.01,2013-02-22 13:58:00,
2013-02-22 07:03:00,25.5,16.8,29.83,WNW,296,0.0,0.0,69,0.00,,---,0.00,VWS V14.01,2013-02-22 14:03:00,
2013-02-22 07:08:00,25.3,16.6,29.83,WNW,296,0.0,0.0,69,0.00,,---,0.00,VWS V14.01,2013-02-22 14:08:00,
2013-02-22 07:13:00,24.8,15.4,29.83,WNW,296,0.0,0.0,67,0.00,,---,0.00,VWS V14.01,2013-02-22 14:13:00,
2013-02-22 07:18:00,24.6,14.9,29.83,West,275,0.0,0.0,66,0.00,,---,0.00,VWS V14.01,2013-02-22 14:18:00,
2013-02-22 07:23:00,24.8,15.1,29.83,West,275,0.0,0.0,66,0.00,,---,0.00,VWS V14.01,2013-02-22 14:23:00,
2013-02-22 07:28:00,25.3,15.9,29.86,West,275,0.0,0.0,67,0.00,,---,0.00,VWS V14.01,2013-02-22 14:28:00,
2013-02-22 07:34:00,25.9,16.8,29.86,West,275,0.0,0.0,68,0.00,,---,0.00,VWS V14.01,2013-02-22 14:34:00,
2013-02-22 07:39:00,26.4,17.3,29.86,West,275,0.0,0.0,68,0.00,,---,0.00,VWS V14.01,2013-02-22 14:39:00,
2013-02-22 07:44:00,26.6,17.5,29.86,West,275,0.0,0.0,68,0.00,,---,0.00,VWS V14.01,2013-02-22 14:44:00,
2013-02-22 07:49:00,27.3,18.2,29.86,West,275,0.0,0.0,68,0.00,,---,0.00,VWS V14.01,2013-02-22 14:49:00,
2013-02-22 07:54:00,28.0,19.2,29.86,West,275,0.0,0.0,69,0.00,,---,0.00,VWS V14.01,2013-02-22 14:54:00,
2013-02-22 07:59:00,28.6,19.7,29.86,West,275,0.0,0.0,69,0.00,,---,0.00,VWS V14.01,2013-02-22 14:59:00,
2013-02-22 08:04:00,29.1,20.2,29.86,West,279,0.0,0.0,69,0.00,,---,0.00,VWS V14.01,2013-02-22 15:04:00,
2013-02-22 08:09:00,29.5,19.9,29.86,West,279,0.0,0.0,67,0.00,,---,0.00,VWS V14.01,2013-02-22 15:09:00,
2013-02-22 08:14:00,29.7,18.6,29.86,West,280,0.0,0.0,63,0.00,,---,0.00,VWS V14.01,2013-02-22 15:14:00,
2013-02-22 08:19:00,29.8,17.3,29.86,NW,320,0.0,0.0,59,0.00,,---,0.00,VWS V14.01,2013-02-22 15:19:00,
2013-02-22 08:24:00,30.2,17.2,29.86,NW,324,0.0,0.0,58,0.00,,---,0.00,VWS V14.01,2013-02-22 15:24:00,
2013-02-22 08:29:00,30.6,15.9,29.86,NNW,327,0.0,0.0,54,0.00,,---,0.00,VWS V14.01,2013-02-22 15:29:00,
2013-02-22 08:34:00,30.7,15.2,29.86,North,350,0.0,0.0,52,0.00,,---,0.00,VWS V14.01,2013-02-22 15:34:00,
2013-02-22 08:39:00,31.1,15.1,29.89,NNW,327,0.0,0.0,51,0.00,,---,0.00,VWS V14.01,2013-02-22 15:39:00,
2013-02-22 08:44:00,31.8,15.8,29.89,North,11,0.0,0.0,51,0.00,,---,0.00,VWS V14.01,2013-02-22 15:44:00,
2013-02-22 08:49:00,32.2,13.2,29.89,North,353,0.0,0.0,45,0.00,,---,0.00,VWS V14.01,2013-02-22 15:49:00,
2013-02-22 08:55:00,32.4,13.4,29.89,North,349,0.0,0.0,45,0.00,,---,0.00,VWS V14.01,2013-02-22 15:55:00,
2013-02-22 09:00:00,32.7,13.7,29.89,NNW,346,0.0,0.0,45,0.00,,---,0.00,VWS V14.01,2013-02-22 16:00:00,
2013-02-22 09:05:00,32.9,13.4,29.86,NNW,329,0.0,0.0,44,0.00,,---,0.00,VWS V14.01,2013-02-22 16:05:00,
2013-02-22 09:10:00,33.1,13.0,29.89,NNW,329,0.0,0.0,43,0.00,,---,0.00,VWS V14.01,2013-02-22 16:10:00,
2013-02-22 09:15:00,33.6,13.5,29.89,WNW,303,0.0,0.0,43,0.00,,---,0.00,VWS V14.01,2013-02-22 16:15:00,
2013-02-22 09:20:00,34.3,13.6,29.89,NE,50,0.0,0.0,42,0.00,,---,0.00,VWS V14.01,2013-02-22 16:20:00,
2013-02-22 09:25:00,34.7,13.4,29.89,NNE,32,0.0,0.0,41,0.00,,---,0.00,VWS V14.01,2013-02-22 16:25:00,
2013-02-22 09:30:00,34.9,13.0,29.89,NW,319,0.0,0.0,40,0.00,,---,0.00,VWS V14.01,2013-02-22 16:30:00,
2013-02-22 09:35:00,35.1,12.6,29.89,WNW,301,0.0,0.0,39,0.00,,---,0.00,VWS V14.01,2013-02-22 16:35:00,
2013-02-22 09:40:00,35.1,12.6,29.89,NNW,342,0.0,0.0,39,0.00,,---,0.00,VWS V14.01,2013-02-22 16:40:00,
2013-02-22 09:45:00,35.6,11.9,29.89,NW,326,0.0,0.0,37,0.00,,---,0.00,VWS V14.01,2013-02-22 16:45:00,
2013-02-22 09:50:00,36.0,11.0,29.89,West,264,4.0,4.0,35,0.00,,---,0.00,VWS V14.01,2013-02-22 16:50:00,
2013-02-22 09:55:00,36.3,11.3,29.89,North,6,2.7,2.7,35,0.00,,---,0.00,VWS V14.01,2013-02-22 16:55:00,
2013-02-22 10:00:00,36.9,11.1,29.89,NE,36,7.6,7.6,34,0.00,,---,0.00,VWS V14.01,2013-02-22 17:00:00,
2013-02-22 10:05:00,37.0,10.6,29.89,NNE,18,3.6,3.6,33,0.00,,---,0.00,VWS V14.01,2013-02-22 17:05:00,
2013-02-22 10:11:00,36.9,9.8,29.89,NNE,12,2.7,2.7,32,0.00,,---,0.00,VWS V14.01,2013-02-22 17:11:00,
2013-02-22 10:16:00,37.0,9.9,29.89,ESE,114,0.0,0.0,32,0.00,,---,0.00,VWS V14.01,2013-02-22 17:16:00,
2013-02-22 10:21:00,37.6,10.4,29.89,ESE,107,0.0,0.0,32,0.00,,---,0.00,VWS V14.01,2013-02-22 17:21:00,
2013-02-22 10:26:00,37.8,9.9,29.89,NNE,15,3.1,3.1,31,0.00,,---,0.00,VWS V14.01,2013-02-22 17:26:00,
2013-02-22 10:31:00,38.1,10.2,29.89,North,357,2.7,2.7,31,0.00,,---,0.00,VWS V14.01,2013-02-22 17:31:00,
2013-02-22 10:36:00,38.5,10.5,29.89,North,5,0.0,0.0,31,0.00,,---,0.00,VWS V14.01,2013-02-22 17:36:00,
2013-02-22 10:41:00,38.7,9.9,29.89,North,11,0.0,0.0,30,0.00,,---,0.00,VWS V14.01,2013-02-22 17:41:00,
2013-02-22 10:46:00,39.2,10.4,29.89,NNW,337,0.0,0.0,30,0.00,,---,0.00,VWS V14.01,2013-02-22 17:46:00,
2013-02-22 10:51:00,39.2,10.4,29.89,ENE,75,0.0,0.0,30,0.00,,---,0.00,VWS V14.01,2013-02-22 17:51:00,
2013-02-22 10:56:00,40.3,10.6,29.89,East,82,4.0,4.0,29,0.00,,---,0.00,VWS V14.01,2013-02-22 17:56:00,
2013-02-22 11:01:00,40.1,10.4,29.89,SSE,164,0.0,0.0,29,0.00,,---,0.00,VWS V14.01,2013-02-22 18:01:00,
2013-02-22 11:06:00,40.6,10.9,29.89,North,353,3.6,3.6,29,0.00,,---,0.00,VWS V14.01,2013-02-22 18:06:00,
2013-02-22 11:11:00,40.3,9.8,29.89,NE,43,4.9,4.9,28,0.00,,---,0.00,VWS V14.01,2013-02-22 18:11:00,
2013-02-22 11:16:00,40.5,9.9,29.89,NNW,341,3.1,4.9,28,0.00,,---,0.00,VWS V14.01,2013-02-22 18:16:00,
2013-02-22 11:21:00,40.5,8.3,29.89,NNW,341,0.0,0.0,26,0.00,,---,0.00,VWS V14.01,2013-02-22 18:21:00,
2013-02-22 11:27:00,41.0,6.1,29.89,South,184,0.0,0.0,23,0.00,,---,0.00,VWS V14.01,2013-02-22 18:27:00,
2013-02-22 11:32:00,41.4,6.4,29.89,SSE,163,0.0,0.0,23,0.00,,---,0.00,VWS V14.01,2013-02-22 18:32:00,
2013-02-22 11:37:00,41.2,4.2,29.89,South,170,0.0,0.0,21,0.00,,---,0.00,VWS V14.01,2013-02-22 18:37:00,
2013-02-22 11:42:00,41.4,4.4,29.89,SE,139,0.0,0.0,21,0.00,,---,0.00,VWS V14.01,2013-02-22 18:42:00,
2013-02-22 11:47:00,41.7,1.4,29.89,SSW,206,0.0,0.0,18,0.00,,---,0.00,VWS V14.01,2013-02-22 18:47:00,
2013-02-22 11:52:00,42.1,1.6,29.89,SSW,208,0.0,0.0,18,0.00,,---,0.00,VWS V14.01,2013-02-22 18:52:00,
2013-02-22 11:57:00,43.3,5.0,29.89,ESE,122,0.0,0.0,20,0.00,,---,0.00,VWS V14.01,2013-02-22 18:57:00,
2013-02-22 12:02:00,44.2,5.7,29.89,ESE,108,4.0,4.0,20,0.00,,---,0.00,VWS V14.01,2013-02-22 19:02:00,
2013-02-22 12:07:00,45.1,2.9,29.89,ESE,120,0.0,0.0,17,0.00,,---,0.00,VWS V14.01,2013-02-22 19:07:00,
2013-02-22 12:12:00,45.5,0.6,29.86,ENE,73,2.2,3.1,15,0.00,,---,0.00,VWS V14.01,2013-02-22 19:12:00,
2013-02-22 12:17:00,45.7,0.7,29.86,North,9,3.1,3.6,15,0.00,,---,0.00,VWS V14.01,2013-02-22 19:17:00,
2013-02-22 12:22:00,45.1,0.3,29.86,North,0,4.0,4.9,15,0.00,,---,0.00,VWS V14.01,2013-02-22 19:22:00,
2013-02-22 12:27:00,45.0,0.1,29.86,North,353,0.0,0.0,15,0.00,,---,0.00,VWS V14.01,2013-02-22 19:27:00,
2013-02-22 12:32:00,45.9,0.8,29.86,East,79,5.8,5.8,15,0.00,,---,0.00,VWS V14.01,2013-02-22 19:32:00,
2013-02-22 12:37:00,46.6,-0.1,29.86,SSW,204,2.2,3.1,14,0.00,,---,0.00,VWS V14.01,2013-02-22 19:37:00,
2013-02-22 12:42:00,46.8,-3.2,29.86,East,84,0.0,0.0,12,0.00,,---,0.00,VWS V14.01,2013-02-22 19:42:00,
2013-02-22 12:47:00,46.9,-3.0,29.86,East,96,5.4,5.4,12,0.00,,---,0.00,VWS V14.01,2013-02-22 19:47:00,
2013-02-22 12:52:00,47.3,-2.7,29.86,NE,44,6.3,6.3,12,0.00,,---,0.00,VWS V14.01,2013-02-22 19:52:00,
2013-02-22 12:57:00,47.3,-2.7,29.86,East,79,5.4,5.4,12,0.00,,---,0.00,VWS V14.01,2013-02-22 19:57:00,
2013-02-22 13:02:00,47.5,-8.5,29.86,ENE,71,0.0,0.0,9,0.00,,---,0.00,VWS V14.01,2013-02-22 20:02:00,
2013-02-22 13:07:00,47.5,-8.5,29.86,ESE,116,0.0,0.0,9,0.00,,---,0.00,VWS V14.01,2013-02-22 20:07:00,
2013-02-22 13:12:00,48.4,-7.8,29.86,East,93,6.3,6.3,9,0.00,,---,0.00,VWS V14.01,2013-02-22 20:12:00,
2013-02-22 13:17:00,48.7,-7.6,29.86,South,169,0.0,3.6,9,0.00,,---,0.00,VWS V14.01,2013-02-22 20:17:00,
2013-02-22 13:22:00,48.6,-7.7,29.86,ESE,122,4.0,4.0,9,0.00,,---,0.00,VWS V14.01,2013-02-22 20:22:00,
2013-02-22 13:27:00,48.9,-7.4,29.86,ESE,118,5.4,7.6,9,0.00,,---,0.00,VWS V14.01,2013-02-22 20:27:00,
2013-02-22 13:32:00,48.6,-7.7,29.86,SSW,202,3.6,3.6,9,0.00,,---,0.00,VWS V14.01,2013-02-22 20:32:00,
2013-02-22 13:37:00,48.6,-7.7,29.86,NW,315,0.0,4.0,9,0.00,,---,0.00,VWS V14.01,2013-02-22 20:37:00,
2013-02-22 13:43:00,48.6,-7.7,29.86,WSW,258,0.0,0.0,9,0.00,,---,0.00,VWS V14.01,2013-02-22 20:43:00,
2013-02-22 13:48:00,48.9,-7.4,29.86,ENE,76,4.0,4.0,9,0.00,,---,0.00,VWS V14.01,2013-02-22 20:48:00,
2013-02-22 13:53:00,49.5,-7.0,29.86,East,79,0.0,0.0,9,0.00,,---,0.00,VWS V14.01,2013-02-22 20:53:00,
2013-02-22 13:58:00,49.3,-7.2,29.86,SSE,151,3.6,3.6,9,0.00,,---,0.00,VWS V14.01,2013-02-22 20:58:00,
2013-02-22 14:03:00,49.8,-6.7,29.86,NE,44,5.4,5.4,9,0.00,,---,0.00,VWS V14.01,2013-02-22 21:03:00,
2013-02-22 14:08:00,50.7,-6.1,29.86,ENE,60,5.8,5.8,9,0.00,,---,0.00,VWS V14.01,2013-02-22 21:08:00,
2013-02-22 14:13:00,51.4,-5.5,29.86,SE,145,5.4,5.4,9,0.00,,---,0.00,VWS V14.01,2013-02-22 21:13:00,
2013-02-22 14:18:00,50.7,-6.1,29.86,SSE,165,4.9,4.9,9,0.00,,---,0.00,VWS V14.01,2013-02-22 21:18:00,
2013-02-22 14:23:00,50.7,-6.1,29.83,SE,137,7.6,7.6,9,0.00,,---,0.00,VWS V14.01,2013-02-22 21:23:00,
2013-02-22 14:28:00,50.9,-5.9,29.83,WSW,244,3.1,3.1,9,0.00,,---,0.00,VWS V14.01,2013-02-22 21:28:00,
2013-02-22 14:33:00,51.1,-5.8,29.83,NE,49,2.7,4.0,9,0.00,,---,0.00,VWS V14.01,2013-02-22 21:33:00,
2013-02-22 14:38:00,51.1,-5.8,29.83,ENE,78,2.7,3.6,9,0.00,,---,0.00,VWS V14.01,2013-02-22 21:38:00,
2013-02-22 14:44:00,51.3,-5.6,29.83,East,82,6.3,6.3,9,0.00,,---,0.00,VWS V14.01,2013-02-22 21:44:00,
2013-02-22 14:49:00,51.3,-5.6,29.83,ENE,76,0.0,0.0,9,0.00,,---,0.00,VWS V14.01,2013-02-22 21:49:00,
2013-02-22 14:54:00,52.2,-7.4,29.83,SE,144,0.0,0.0,8,0.00,,---,0.00,VWS V14.01,2013-02-22 21:54:00,
2013-02-22 14:59:00,52.0,-7.5,29.83,NNE,16,3.1,3.1,8,0.00,,---,0.00,VWS V14.01,2013-02-22 21:59:00,
2013-02-22 15:04:00,52.0,-7.5,29.83,NE,43,3.6,3.6,8,0.00,,---,0.00,VWS V14.01,2013-02-22 22:04:00,
2013-02-22 15:09:00,52.2,-7.4,29.83,ENE,59,0.0,0.0,8,0.00,,---,0.00,VWS V14.01,2013-02-22 22:09:00,
2013-02-22 15:14:00,52.5,-7.1,29.83,SE,139,5.8,5.8,8,0.00,,---,0.00,VWS V14.01,2013-02-22 22:14:00,
2013-02-22 15:19:00,52.2,-7.4,29.83,ESE,123,3.6,3.6,8,0.00,,---,0.00,VWS V14.01,2013-02-22 22:19:00,
2013-02-22 15:24:00,52.2,-7.4,29.83,East,79,5.8,5.8,8,0.00,,---,0.00,VWS V14.01,2013-02-22 22:24:00,
2013-02-22 15:29:00,52.3,-7.2,29.83,ENE,77,2.7,2.7,8,0.00,,---,0.00,VWS V14.01,2013-02-22 22:29:00,
2013-02-22 15:34:00,52.3,-7.2,29.83,SSE,156,4.0,4.0,8,0.00,,---,0.00,VWS V14.01,2013-02-22 22:34:00,
2013-02-22 15:39:00,52.3,-7.2,29.83,NNE,12,0.0,0.0,8,0.00,,---,0.00,VWS V14.01,2013-02-22 22:39:00,
2013-02-22 15:44:00,52.3,-7.2,29.83,SE,135,3.1,3.1,8,0.00,,---,0.00,VWS V14.01,2013-02-22 22:44:00,
2013-02-22 15:49:00,52.7,-7.0,29.83,SE,125,4.9,4.9,8,0.00,,---,0.00,VWS V14.01,2013-02-22 22:49:00,
2013-02-22 15:54:00,52.7,-7.0,29.83,East,85,0.0,4.9,8,0.00,,---,0.00,VWS V14.01,2013-02-22 22:54:00,
2013-02-22 15:59:00,52.5,-7.1,29.80,ENE,64,3.6,3.6,8,0.00,,---,0.00,VWS V14.01,2013-02-22 22:59:00,
2013-02-22 16:04:00,52.5,-7.1,29.80,East,92,0.0,0.0,8,0.00,,---,0.00,VWS V14.01,2013-02-22 23:04:00,
2013-02-22 16:09:00,52.7,-7.0,29.80,NW,325,0.0,0.0,8,0.00,,---,0.00,VWS V14.01,2013-02-22 23:09:00,
2013-02-22 16:15:00,52.7,-7.0,29.80,NNW,338,0.0,0.0,8,0.00,,---,0.00,VWS V14.01,2013-02-22 23:15:00,
2013-02-22 16:20:00,52.7,-7.0,29.80,WNW,284,0.0,0.0,8,0.00,,---,0.00,VWS V14.01,2013-02-22 23:20:00,
2013-02-22 16:25:00,52.7,-7.0,29.80,NNW,337,6.3,6.3,8,0.00,,---,0.00,VWS V14.01,2013-02-22 23:25:00,
2013-02-22 16:30:00,52.9,-6.8,29.80,NNW,329,5.4,5.4,8,0.00,,---,0.00,VWS V14.01,2013-02-22 23:30:00,
2013-02-22 16:35:00,52.9,-6.8,29.80,NNW,341,3.6,3.6,8,0.00,,---,0.00,VWS V14.01,2013-02-22 23:35:00,
2013-02-22 16:40:00,53.1,-6.7,29.80,NNW,333,2.7,4.9,8,0.00,,---,0.00,VWS V14.01,2013-02-22 23:40:00,
2013-02-22 16:45:00,53.1,-6.7,29.80,NW,316,6.3,6.3,8,0.00,,---,0.00,VWS V14.01,2013-02-22 23:45:00,
2013-02-22 16:50:00,53.1,-6.7,29.80,West,273,4.0,4.0,8,0.00,,---,0.00,VWS V14.01,2013-02-22 23:50:00,
2013-02-22 16:55:00,53.1,-6.7,29.80,NW,311,6.7,6.7,8,0.00,,---,0.00,VWS V14.01,2013-02-22 23:55:00,
2013-02-22 17:00:00,53.1,-6.7,29.80,WNW,282,3.6,3.6,8,0.00,,---,0.00,VWS V14.01,2013-02-23 00:00:00,
2013-02-22 17:05:00,53.1,-6.7,29.80,West,278,6.3,6.3,8,0.00,,---,0.00,VWS V14.01,2013-02-23 00:05:00,
2013-02-22 17:10:00,52.5,-7.1,29.80,WNW,287,5.8,5.8,8,0.00,,---,0.00,VWS V14.01,2013-02-23 00:10:00,
2013-02-22 17:15:00,52.0,-7.5,29.80,NNW,335,6.3,6.3,8,0.00,,---,0.00,VWS V14.01,2013-02-23 00:15:00,
2013-02-22 17:21:00,51.4,-5.5,29.80,WNW,289,4.9,5.8,9,0.00,,---,0.00,VWS V14.01,2013-02-23 00:21:00,
2013-02-22 17:26:00,51.3,-5.6,29.83,NW,304,5.8,7.6,9,0.00,,---,0.00,VWS V14.01,2013-02-23 00:26:00,
2013-02-22 17:31:00,50.9,-5.9,29.83,WNW,285,6.3,6.3,9,0.00,,---,0.00,VWS V14.01,2013-02-23 00:31:00,
2013-02-22 17:36:00,50.5,-6.2,29.83,NNW,335,5.4,6.3,9,0.00,,---,0.00,VWS V14.01,2013-02-23 00:36:00,
2013-02-22 17:41:00,50.2,-6.5,29.83,NW,319,7.6,7.6,9,0.00,,---,0.00,VWS V14.01,2013-02-23 00:41:00,
2013-02-22 17:46:00,49.8,-6.7,29.83,NNW,334,5.4,5.4,9,0.00,,---,0.00,VWS V14.01,2013-02-23 00:46:00,
2013-02-22 17:51:00,49.5,-7.0,29.83,NW,305,0.0,0.0,9,0.00,,---,0.00,VWS V14.01,2013-02-23 00:51:00,
2013-02-22 17:56:00,49.3,-7.2,29.83,WNW,290,0.0,0.0,9,0.00,,---,0.00,VWS V14.01,2013-02-23 00:56:00,
2013-02-22 18:01:00,48.9,-7.4,29.83,WNW,290,0.0,0.0,9,0.00,,---,0.00,VWS V14.01,2013-02-23 01:01:00,
2013-02-22 18:06:00,48.2,-8.0,29.83,SW,224,0.0,0.0,9,0.00,,---,0.00,VWS V14.01,2013-02-23 01:06:00,
2013-02-22 18:11:00,47.3,-8.7,29.83,SW,223,0.0,0.0,9,0.00,,---,0.00,VWS V14.01,2013-02-23 01:11:00,
2013-02-22 18:16:00,46.8,-9.1,29.83,SW,220,0.0,0.0,9,0.00,,---,0.00,VWS V14.01,2013-02-23 01:16:00,
2013-02-22 18:21:00,46.6,-9.2,29.83,SW,217,0.0,0.0,9,0.00,,---,0.00,VWS V14.01,2013-02-23 01:21:00,
2013-02-22 18:26:00,46.0,-7.5,29.83,SW,218,0.0,0.0,10,0.00,,---,0.00,VWS V14.01,2013-02-23 01:26:00,
2013-02-22 18:31:00,45.3,-8.1,29.83,SW,228,0.0,0.0,10,0.00,,---,0.00,VWS V14.01,2013-02-23 01:31:00,
2013-02-22 18:36:00,45.0,-8.3,29.83,SW,218,0.0,0.0,10,0.00,,---,0.00,VWS V14.01,2013-02-23 01:36:00,
2013-02-22 18:42:00,45.0,-8.3,29.83,SW,217,0.0,0.0,10,0.00,,---,0.00,VWS V14.01,2013-02-23 01:42:00,
2013-02-22 18:47:00,44.6,-8.6,29.83,SW,231,0.0,0.0,10,0.00,,---,0.00,VWS V14.01,2013-02-23 01:47:00,
2013-02-22 18:52:00,44.2,-8.9,29.83,SW,234,0.0,0.0,10,0.00,,---,0.00,VWS V14.01,2013-02-23 01:52:00,
2013-02-22 18:57:00,44.1,-9.0,29.83,SW,220,0.0,0.0,10,0.00,,---,0.00,VWS V14.01,2013-02-23 01:57:00,
2013-02-22 19:02:00,43.7,-9.3,29.83,SW,214,0.0,0.0,10,0.00,,---,0.00,VWS V14.01,2013-02-23 02:02:00,
2013-02-22 19:07:00,43.3,-9.6,29.86,SW,214,0.0,0.0,10,0.00,,---,0.00,VWS V14.01,2013-02-23 02:07:00,
2013-02-22 19:12:00,43.0,-9.9,29.86,SW,214,0.0,0.0,10,0.00,,---,0.00,VWS V14.01,2013-02-23 02:12:00,
2013-02-22 19:17:00,42.3,-8.5,29.86,SW,214,0.0,0.0,11,0.00,,---,0.00,VWS V14.01,2013-02-23 02:17:00,
2013-02-22 19:22:00,41.5,-9.1,29.86,SW,214,0.0,0.0,11,0.00,,---,0.00,VWS V14.01,2013-02-23 02:22:00,
2013-02-22 19:28:00,41.2,-9.3,29.86,NNW,335,0.0,0.0,11,0.00,,---,0.00,VWS V14.01,2013-02-23 02:28:00,
2013-02-22 19:33:00,41.2,-9.3,29.86,NNW,334,0.0,0.0,11,0.00,,---,0.00,VWS V14.01,2013-02-23 02:33:00,
2013-02-22 19:38:00,41.2,-9.3,29.86,NNW,334,0.0,0.0,11,0.00,,---,0.00,VWS V14.01,2013-02-23 02:38:00,
2013-02-22 19:43:00,41.4,-9.2,29.86,NNW,334,0.0,0.0,11,0.00,,---,0.00,VWS V14.01,2013-02-23 02:43:00,
2013-02-22 19:48:00,41.0,-9.5,29.86,NNE,20,0.0,0.0,11,0.00,,---,0.00,VWS V14.01,2013-02-23 02:48:00,
2013-02-22 19:53:00,41.0,-9.5,29.86,SW,228,0.0,0.0,11,0.00,,---,0.00,VWS V14.01,2013-02-23 02:53:00,
2013-02-22 19:58:00,41.2,-9.3,29.86,SW,229,0.0,0.0,11,0.00,,---,0.00,VWS V14.01,2013-02-23 02:58:00,
2013-02-22 20:03:00,40.6,-9.8,29.86,NW,318,0.0,0.0,11,0.00,,---,0.00,VWS V14.01,2013-02-23 03:03:00,
2013-02-22 20:09:00,39.6,-10.6,29.86,West,274,0.0,0.0,11,0.00,,---,0.00,VWS V14.01,2013-02-23 03:09:00,
2013-02-22 20:14:00,39.0,-11.0,29.86,West,276,0.0,0.0,11,0.00,,---,0.00,VWS V14.01,2013-02-23 03:14:00,
2013-02-22 20:19:00,38.8,-11.2,29.86,West,267,0.0,0.0,11,0.00,,---,0.00,VWS V14.01,2013-02-23 03:19:00,
2013-02-22 20:24:00,38.5,-11.5,29.86,West,266,0.0,0.0,11,0.00,,---,0.00,VWS V14.01,2013-02-23 03:24:00,
2013-02-22 20:29:00,38.1,-11.8,29.86,West,265,0.0,0.0,11,0.00,,---,0.00,VWS V14.01,2013-02-23 03:29:00,
2013-02-22 20:34:00,37.8,-12.0,29.86,West,265,0.0,0.0,11,0.00,,---,0.00,VWS V14.01,2013-02-23 03:34:00,
2013-02-22 20:39:00,37.6,-12.2,29.89,West,265,0.0,0.0,11,0.00,,---,0.00,VWS V14.01,2013-02-23 03:39:00,
2013-02-22 20:44:00,37.6,-7.3,29.89,West,265,0.0,0.0,14,0.00,,---,0.00,VWS V14.01,2013-02-23 03:44:00,
2013-02-22 20:50:00,37.6,-7.3,29.89,West,265,0.0,0.0,14,0.00,,---,0.00,VWS V14.01,2013-02-23 03:50:00,
2013-02-22 20:55:00,37.9,-7.0,29.89,West,265,0.0,0.0,14,0.00,,---,0.00,VWS V14.01,2013-02-23 03:55:00,
2013-02-22 21:00:00,37.9,-7.0,29.89,West,265,0.0,0.0,14,0.00,,---,0.00,VWS V14.01,2013-02-23 04:00:00,
2013-02-22 21:05:00,38.1,-6.9,29.89,West,265,0.0,0.0,14,0.00,,---,0.00,VWS V14.01,2013-02-23 04:05:00,
2013-02-22 21:10:00,38.3,-6.7,29.89,WNW,294,0.0,0.0,14,0.00,,---,0.00,VWS V14.01,2013-02-23 04:10:00,
2013-02-22 21:16:00,38.5,-6.6,29.89,WNW,293,0.0,0.0,14,0.00,,---,0.00,VWS V14.01,2013-02-23 04:16:00,
2013-02-22 21:21:00,38.1,-6.9,29.89,WNW,293,0.0,0.0,14,0.00,,---,0.00,VWS V14.01,2013-02-23 04:21:00,
2013-02-22 21:26:00,37.6,-7.3,29.89,WNW,292,0.0,0.0,14,0.00,,---,0.00,VWS V14.01,2013-02-23 04:26:00,
2013-02-22 21:31:00,37.0,-7.7,29.89,WNW,291,0.0,0.0,14,0.00,,---,0.00,VWS V14.01,2013-02-23 04:31:00,
2013-02-22 21:36:00,36.9,-7.9,29.89,WNW,292,0.0,0.0,14,0.00,,---,0.00,VWS V14.01,2013-02-23 04:36:00,
2013-02-22 21:42:00,36.9,-7.9,29.89,WNW,291,0.0,0.0,14,0.00,,---,0.00,VWS V14.01,2013-02-23 04:42:00,
2013-02-22 21:47:00,36.7,-4.0,29.89,WNW,292,0.0,0.0,17,0.00,,---,0.00,VWS V14.01,2013-02-23 04:47:00,
2013-02-22 21:52:00,37.0,-3.7,29.89,West,274,0.0,0.0,17,0.00,,---,0.00,VWS V14.01,2013-02-23 04:52:00,
2013-02-22 21:57:00,37.8,-4.4,29.89,SW,229,0.0,0.0,16,0.00,,---,0.00,VWS V14.01,2013-02-23 04:57:00,
2013-02-22 22:00:00,37.9,-4.2,29.89,SW,226,0.0,0.0,16,0.00,,---,0.00,VWS V14.01,2013-02-23 05:00:00,
2013-02-22 22:01:00,37.9,-4.2,29.89,SW,226,0.0,0.0,16,0.00,,---,0.00,VWS V14.01,2013-02-23 05:01:00,
2013-02-22 22:06:00,37.6,-4.5,29.89,SW,226,0.0,0.0,16,0.00,,---,0.00,VWS V14.01,2013-02-23 05:06:00,
2013-02-22 22:11:00,37.0,-3.7,29.89,SW,226,0.0,0.0,17,0.00,,---,0.00,VWS V14.01,2013-02-23 05:11:00,
2013-02-22 22:17:00,37.0,-3.7,29.89,SW,226,0.0,0.0,17,0.00,,---,0.00,VWS V14.01,2013-02-23 05:17:00,
2013-02-22 22:22:00,36.7,-4.0,29.89,SW,226,0.0,0.0,17,0.00,,---,0.00,VWS V14.01,2013-02-23 05:22:00,
2013-02-22 22:27:00,36.7,-4.0,29.89,SW,216,0.0,0.0,17,0.00,,---,0.00,VWS V14.01,2013-02-23 05:27:00,
2013-02-22 22:32:00,36.5,-1.8,29.89,SW,216,0.0,0.0,19,0.00,,---,0.00,VWS V14.01,2013-02-23 05:32:00,
2013-02-22 22:37:00,36.3,-2.0,29.89,SW,216,0.0,0.0,19,0.00,,---,0.00,VWS V14.01,2013-02-23 05:37:00,
2013-02-22 22:42:00,36.3,-2.0,29.89,SW,216,0.0,0.0,19,0.00,,---,0.00,VWS V14.01,2013-02-23 05:42:00,
2013-02-22 22:47:00,36.3,-2.0,29.89,SW,218,0.0,0.0,19,0.00,,---,0.00,VWS V14.01,2013-02-23 05:47:00,
2013-02-22 22:53:00,36.3,-2.0,29.89,SW,219,0.0,0.0,19,0.00,,---,0.00,VWS V14.01,2013-02-23 05:53:00,
2013-02-22 22:58:00,36.5,-1.8,29.89,SW,219,0.0,0.0,19,0.00,,---,0.00,VWS V14.01,2013-02-23 05:58:00,
2013-02-22 23:03:00,36.1,-2.1,29.89,SW,219,0.0,0.0,19,0.00,,---,0.00,VWS V14.01,2013-02-23 06:03:00,
2013-02-22 23:08:00,35.8,-2.4,29.89,SW,219,0.0,0.0,19,0.00,,---,0.00,VWS V14.01,2013-02-23 06:08:00,
2013-02-22 23:13:00,35.4,-1.6,29.89,SW,219,0.0,0.0,20,0.00,,---,0.00,VWS V14.01,2013-02-23 06:13:00,
2013-02-22 23:19:00,35.2,-1.8,29.89,SW,219,0.0,0.0,20,0.00,,---,0.00,VWS V14.01,2013-02-23 06:19:00,
2013-02-22 23:24:00,35.1,-2.0,29.89,SW,219,0.0,0.0,20,0.00,,---,0.00,VWS V14.01,2013-02-23 06:24:00,
2013-02-22 23:29:00,35.1,-2.0,29.89,SW,219,0.0,0.0,20,0.00,,---,0.00,VWS V14.01,2013-02-23 06:29:00,
2013-02-22 23:34:00,34.9,-2.1,29.89,SW,219,0.0,0.0,20,0.00,,---,0.00,VWS V14.01,2013-02-23 06:34:00,
2013-02-22 23:39:00,35.1,-2.0,29.89,SW,219,0.0,0.0,20,0.00,,---,0.00,VWS V14.01,2013-02-23 06:39:00,
2013-02-22 23:44:00,34.9,-2.1,29.89,SW,219,0.0,0.0,20,0.00,,---,0.00,VWS V14.01,2013-02-23 06:44:00,
2013-02-22 23:49:00,34.5,-2.4,29.89,SW,219,0.0,0.0,20,0.00,,---,0.00,VWS V14.01,2013-02-23 06:49:00,
2013-02-22 23:54:00,34.7,-2.3,29.89,SW,219,0.0,0.0,20,0.00,,---,0.00,VWS V14.01,2013-02-23 06:54:00,
2013-02-22 23:59:00,34.7,-2.3,29.89,SW,219,0.0,0.0,20,0.00,,---,0.00,VWS V14.01,2013-02-23 06:59:00,